Murdochville, Canada
Current Conditions -  °F | °C
As of 7:00 AM on Friday 24 Oct 2014 (Local Time) from CYGP Reporting Station
Few Clouds Few Clouds  
Wind Chill: 19°   Ceiling: Unl
Heat Index: 27°   Visibility: 15mi
Dew Point: 25°   Wind: 7mph
Humidity: 93%   Direction: 250°WSW
Pressure: 29.97"   Gusts: NA
Location:  48.97°N, 65.52°W
Report Text: CYGP 241100Z 25006KT 15SM FEW120 M03/M04 A2997 RMK AC2 FROIN SLP152
Loading
Personal Weather Stations






























Interactive Weather Map
Tropical Storm Tracking
New forecast layout! Learn more

10-Day Weather Forecast

Advertisements
Track Severe Weather on mobile